Tuckerman, AR (72473)

6:41 PM CDT on May 27, 2018 (GMT -0500)
ddixon | | Change Station
Active Advisory: Flood Warning

Elev 229 ft 35.74 °N, 91.20 °W | Updated 25 seconds ago

Clear
Clear
94.5 °F
Feels Like 100 °F
N
1.1
Wind Variable Wind from ENE
Gusts 4.9 mph

Today
High -- | Low -- °F
--% Chance of Precip.
Yesterday
High -- | Low -- °F
Precip. -- in
Pressure 29.85 in
Visibility 10.0 miles
Clouds Scattered Clouds 5000 ft
Heat Index 100 °F
Dew Point 68 °F
Humidity 43%
Rainfall 0.00 in
Snow Depth Not available.
5:52 AM 8:12 PM
Waxing Gibbous, 97% visible
METAR KM19 272256Z AUTO 36005KT 10SM SCT050 32/21 A2984 RMK AO2 SLP107 T03170211
Pressure 29.85 in
Visibility 10.0 miles
Clouds Scattered Clouds 5000 ft
Heat Index 100 °F
Dew Point 68 °F
Humidity 43%
Rainfall 0.00 in
Snow Depth Not available.
5:52 AM 8:12 PM
Waxing Gibbous, 97% visible
METAR KM19 272256Z AUTO 36005KT 10SM SCT050 32/21 A2984 RMK AO2 SLP107 T03170211

Get Your Daily Forecast Email!

Thanks for signing up!

Be on the lookout for a verification email in your inbox.

You'll start receiving severe weather alerts in your inbox..

×

10-Day Weather Forecast

Almanac

Astronomy

May. 27, 2018 Rise Set
Actual Time
Civil Twilight
Nautical Twilight
Astronomical Twilight
Moon
Length of Visible Light
Length of Day
Tomorrow will be .
, % of the Moon is Illuminated

Today's Extremes

State Highs State Lows

Community

WunderPhotos

Category 6

Welcome to Category 6. This is the collective home for Weather Underground's featured writeups by Dr. Jeff Masters (right), Bob Henson (left), Chris Burt, and other regular contributors.

Nearby

Air Quality

  Air Quality AQ Index Pollutant
Not available.

Snow Depth

Station Depth Elevation

Earthquake Activity

City Distance Mag. Time & Date
Minimum magnitude displayed is 2.5.

Coastal Water Temperatures

Place Temperature

Stations

Nearby Weather Stations

Station Location Temp. Windchill Dew Point Humidity Wind Precip. Elev Updated Type
                   

Watches & Warnings

Flood Warning
Issued: 9:52 AM CDT May. 27, 2018 – National Weather Service

The Flood Warning continues for
the Cache River near Patterson.
* Until Friday afternoon... or until the warning is cancelled.
* At 9:00 am Sunday the stage was 9.9 feet.
* Minor flooding is occurring and minor flooding is forecast.
* Flood stage is 9.0 feet.
* Forecast... the river will continue to slowly fall to a stage
near 9.6 feet by Tuesday morning.
* Impacts at 10.0 feet... pastureland and cropland not protected by
levees in Jackson and Woodruff counties affected. Water is deep
along the shoulders of State Highway 18 near Grubbs. Water over
portions of Woodruff County Road 775 north of State Highway 260.




             Fld observed forecast 6 am crest
location stg stg day time Mon Tue Wed crest time date

Cache River
Patterson 9 9.9 sun 09 am 9.8 9.6 9.4 *falling*




Lat... Lon 3510 9133 3522 9128 3539 9123 3538 9113
3521 9117 3508 9122




229